sensor_id;sensor_type;location;lat;lon;timestamp;P1;durP1;ratioP1;P2;durP2;ratioP2
51384;SDS011;37478;55.682;37.462;2023-06-14T00:02:15;11.57;;;5.00;;
51384;SDS011;37478;55.682;37.462;2023-06-14T00:04:40;11.32;;;4.63;;
51384;SDS011;37478;55.682;37.462;2023-06-14T00:07:06;7.78;;;4.95;;
51384;SDS011;37478;55.682;37.462;2023-06-14T00:09:35;8.07;;;4.65;;
51384;SDS011;37478;55.682;37.462;2023-06-14T00:12:00;9.02;;;4.82;;
51384;SDS011;37478;55.682;37.462;2023-06-14T00:14:26;7.75;;;4.43;;
51384;SDS011;37478;55.682;37.462;2023-06-14T00:16:51;7.75;;;4.63;;
51384;SDS011;37478;55.682;37.462;2023-06-14T00:19:18;12.82;;;5.40;;
51384;SDS011;37478;55.682;37.462;2023-06-14T00:21:44;8.90;;;5.15;;
51384;SDS011;37478;55.682;37.462;2023-06-14T00:24:10;8.50;;;4.93;;
51384;SDS011;37478;55.682;37.462;2023-06-14T00:26:36;10.85;;;4.82;;
51384;SDS011;37478;55.682;37.462;2023-06-14T00:29:01;8.95;;;4.20;;
51384;SDS011;37478;55.682;37.462;2023-06-14T00:31:26;7.95;;;4.60;;
51384;SDS011;37478;55.682;37.462;2023-06-14T00:33:52;8.55;;;4.57;;
51384;SDS011;37478;55.682;37.462;2023-06-14T00:36:17;7.05;;;4.28;;
51384;SDS011;37478;55.682;37.462;2023-06-14T00:38:42;11.05;;;4.97;;
51384;SDS011;37478;55.682;37.462;2023-06-14T00:41:08;14.55;;;4.43;;
51384;SDS011;37478;55.682;37.462;2023-06-14T00:43:33;10.65;;;4.70;;
51384;SDS011;37478;55.682;37.462;2023-06-14T00:46:00;9.82;;;5.03;;
51384;SDS011;37478;55.682;37.462;2023-06-14T00:48:25;9.63;;;4.93;;
51384;SDS011;37478;55.682;37.462;2023-06-14T00:50:50;12.52;;;5.00;;
51384;SDS011;37478;55.682;37.462;2023-06-14T00:53:17;9.23;;;5.00;;
51384;SDS011;37478;55.682;37.462;2023-06-14T00:55:43;10.45;;;5.30;;
51384;SDS011;37478;55.682;37.462;2023-06-14T00:58:09;14.27;;;4.93;;
51384;SDS011;37478;55.682;37.462;2023-06-14T01:00:34;9.85;;;4.88;;
51384;SDS011;37478;55.682;37.462;2023-06-14T01:03:00;9.45;;;5.30;;
51384;SDS011;37478;55.682;37.462;2023-06-14T01:05:26;10.00;;;4.30;;
51384;SDS011;37478;55.682;37.462;2023-06-14T01:08:27;15.70;;;5.53;;
51384;SDS011;37478;55.682;37.462;2023-06-14T01:10:47;11.80;;;5.25;;
51384;SDS011;37478;55.682;37.462;2023-06-14T01:15:43;10.95;;;5.10;;
51384;SDS011;37478;55.682;37.462;2023-06-14T01:18:09;16.23;;;6.18;;
51384;SDS011;37478;55.682;37.462;2023-06-14T01:20:42;10.75;;;4.93;;
51384;SDS011;37478;55.682;37.462;2023-06-14T01:23:10;9.38;;;5.55;;
51384;SDS011;37478;55.682;37.462;2023-06-14T01:25:37;10.05;;;5.15;;
51384;SDS011;37478;55.682;37.462;2023-06-14T01:28:04;15.23;;;5.47;;
51384;SDS011;37478;55.682;37.462;2023-06-14T01:30:36;16.48;;;6.00;;
51384;SDS011;37478;55.682;37.462;2023-06-14T01:33:02;12.18;;;5.32;;
51384;SDS011;37478;55.682;37.462;2023-06-14T01:35:28;13.13;;;6.20;;
51384;SDS011;37478;55.682;37.462;2023-06-14T01:37:54;8.90;;;4.82;;
51384;SDS011;37478;55.682;37.462;2023-06-14T01:40:19;9.65;;;5.38;;
51384;SDS011;37478;55.682;37.462;2023-06-14T01:42:46;13.60;;;6.47;;
51384;SDS011;37478;55.682;37.462;2023-06-14T01:45:11;15.45;;;5.25;;
51384;SDS011;37478;55.682;37.462;2023-06-14T01:47:37;8.85;;;5.00;;
51384;SDS011;37478;55.682;37.462;2023-06-14T01:50:03;12.43;;;5.82;;
51384;SDS011;37478;55.682;37.462;2023-06-14T01:52:29;12.10;;;5.15;;
51384;SDS011;37478;55.682;37.462;2023-06-14T01:54:54;9.05;;;5.53;;
51384;SDS011;37478;55.682;37.462;2023-06-14T01:57:19;8.50;;;5.45;;
51384;SDS011;37478;55.682;37.462;2023-06-14T01:59:45;12.20;;;6.28;;
51384;SDS011;37478;55.682;37.462;2023-06-14T02:02:13;11.48;;;5.80;;
51384;SDS011;37478;55.682;37.462;2023-06-14T02:04:39;16.10;;;5.90;;
51384;SDS011;37478;55.682;37.462;2023-06-14T02:07:04;11.13;;;4.80;;
51384;SDS011;37478;55.682;37.462;2023-06-14T02:09:29;11.02;;;5.55;;
51384;SDS011;37478;55.682;37.462;2023-06-14T02:11:55;12.13;;;6.45;;
51384;SDS011;37478;55.682;37.462;2023-06-14T02:14:20;14.77;;;6.18;;
51384;SDS011;37478;55.682;37.462;2023-06-14T02:16:45;12.73;;;5.72;;
51384;SDS011;37478;55.682;37.462;2023-06-14T02:19:16;10.32;;;5.88;;
51384;SDS011;37478;55.682;37.462;2023-06-14T02:21:42;14.57;;;5.55;;
51384;SDS011;37478;55.682;37.462;2023-06-14T02:24:07;13.70;;;5.72;;
51384;SDS011;37478;55.682;37.462;2023-06-14T02:26:33;10.90;;;5.97;;
51384;SDS011;37478;55.682;37.462;2023-06-14T02:28:58;10.57;;;5.93;;
51384;SDS011;37478;55.682;37.462;2023-06-14T02:31:23;14.52;;;6.07;;
51384;SDS011;37478;55.682;37.462;2023-06-14T02:33:49;19.02;;;6.00;;
51384;SDS011;37478;55.682;37.462;2023-06-14T02:36:14;10.48;;;5.57;;
51384;SDS011;37478;55.682;37.462;2023-06-14T02:38:40;13.10;;;6.10;;
51384;SDS011;37478;55.682;37.462;2023-06-14T02:41:06;14.00;;;5.75;;
51384;SDS011;37478;55.682;37.462;2023-06-14T02:43:31;13.63;;;6.50;;
51384;SDS011;37478;55.682;37.462;2023-06-14T02:45:56;12.48;;;5.50;;
51384;SDS011;37478;55.682;37.462;2023-06-14T02:48:22;12.35;;;6.82;;
51384;SDS011;37478;55.682;37.462;2023-06-14T02:50:47;13.13;;;6.45;;
51384;SDS011;37478;55.682;37.462;2023-06-14T02:53:12;17.85;;;6.78;;
51384;SDS011;37478;55.682;37.462;2023-06-14T02:55:37;17.15;;;7.85;;
51384;SDS011;37478;55.682;37.462;2023-06-14T02:58:05;12.30;;;6.43;;
51384;SDS011;37478;55.682;37.462;2023-06-14T03:00:30;16.65;;;6.55;;
51384;SDS011;37478;55.682;37.462;2023-06-14T03:02:55;18.58;;;8.07;;
51384;SDS011;37478;55.682;37.462;2023-06-14T03:05:21;15.80;;;7.07;;
51384;SDS011;37478;55.682;37.462;2023-06-14T03:07:47;12.15;;;6.88;;
51384;SDS011;37478;55.682;37.462;2023-06-14T03:10:12;11.18;;;6.43;;
51384;SDS011;37478;55.682;37.462;2023-06-14T03:12:38;20.98;;;6.97;;
51384;SDS011;37478;55.682;37.462;2023-06-14T03:15:03;15.45;;;8.35;;
51384;SDS011;37478;55.682;37.462;2023-06-14T03:17:29;23.20;;;6.65;;
51384;SDS011;37478;55.682;37.462;2023-06-14T03:19:58;13.75;;;6.85;;
51384;SDS011;37478;55.682;37.462;2023-06-14T03:22:23;15.77;;;7.47;;
51384;SDS011;37478;55.682;37.462;2023-06-14T03:24:50;15.30;;;6.30;;
51384;SDS011;37478;55.682;37.462;2023-06-14T03:27:17;13.70;;;7.20;;
51384;SDS011;37478;55.682;37.462;2023-06-14T03:29:42;21.60;;;8.75;;
51384;SDS011;37478;55.682;37.462;2023-06-14T03:32:08;16.77;;;6.25;;
51384;SDS011;37478;55.682;37.462;2023-06-14T03:34:33;16.70;;;6.97;;
51384;SDS011;37478;55.682;37.462;2023-06-14T03:36:58;11.70;;;6.93;;
51384;SDS011;37478;55.682;37.462;2023-06-14T03:39:24;10.93;;;6.57;;
51384;SDS011;37478;55.682;37.462;2023-06-14T03:41:49;13.85;;;6.85;;
51384;SDS011;37478;55.682;37.462;2023-06-14T03:44:15;12.70;;;7.93;;
51384;SDS011;37478;55.682;37.462;2023-06-14T03:46:41;16.95;;;6.93;;
51384;SDS011;37478;55.682;37.462;2023-06-14T03:49:07;16.45;;;6.47;;
51384;SDS011;37478;55.682;37.462;2023-06-14T03:51:32;17.45;;;6.22;;
51384;SDS011;37478;55.682;37.462;2023-06-14T03:54:00;11.23;;;5.80;;
51384;SDS011;37478;55.682;37.462;2023-06-14T03:56:25;15.20;;;6.30;;
51384;SDS011;37478;55.682;37.462;2023-06-14T03:58:52;17.05;;;7.68;;
51384;SDS011;37478;55.682;37.462;2023-06-14T04:01:17;27.38;;;7.47;;
51384;SDS011;37478;55.682;37.462;2023-06-14T04:03:42;12.70;;;7.63;;
51384;SDS011;37478;55.682;37.462;2023-06-14T04:06:08;12.80;;;7.03;;
51384;SDS011;37478;55.682;37.462;2023-06-14T04:08:33;11.77;;;6.65;;
51384;SDS011;37478;55.682;37.462;2023-06-14T04:11:00;16.73;;;7.20;;
51384;SDS011;37478;55.682;37.462;2023-06-14T04:13:25;18.02;;;7.80;;
51384;SDS011;37478;55.682;37.462;2023-06-14T04:15:50;14.57;;;7.25;;
51384;SDS011;37478;55.682;37.462;2023-06-14T04:18:16;13.35;;;6.88;;
51384;SDS011;37478;55.682;37.462;2023-06-14T04:20:41;14.23;;;6.35;;
51384;SDS011;37478;55.682;37.462;2023-06-14T04:23:16;16.98;;;7.38;;
51384;SDS011;37478;55.682;37.462;2023-06-14T04:25:43;17.40;;;6.80;;
51384;SDS011;37478;55.682;37.462;2023-06-14T04:28:12;14.50;;;5.43;;
51384;SDS011;37478;55.682;37.462;2023-06-14T04:30:39;13.80;;;6.97;;
51384;SDS011;37478;55.682;37.462;2023-06-14T04:33:05;14.32;;;7.80;;
51384;SDS011;37478;55.682;37.462;2023-06-14T04:35:31;15.70;;;6.53;;
51384;SDS011;37478;55.682;37.462;2023-06-14T04:37:57;17.58;;;7.35;;
51384;SDS011;37478;55.682;37.462;2023-06-14T04:40:23;13.50;;;6.90;;
51384;SDS011;37478;55.682;37.462;2023-06-14T04:42:48;13.68;;;7.65;;
51384;SDS011;37478;55.682;37.462;2023-06-14T04:45:16;17.05;;;7.60;;
51384;SDS011;37478;55.682;37.462;2023-06-14T04:47:41;14.80;;;6.90;;
51384;SDS011;37478;55.682;37.462;2023-06-14T04:50:07;13.60;;;7.03;;
51384;SDS011;37478;55.682;37.462;2023-06-14T04:52:32;10.40;;;6.45;;
51384;SDS011;37478;55.682;37.462;2023-06-14T04:54:58;12.60;;;6.20;;
51384;SDS011;37478;55.682;37.462;2023-06-14T04:57:24;12.23;;;6.40;;
51384;SDS011;37478;55.682;37.462;2023-06-14T04:59:50;16.67;;;7.03;;
51384;SDS011;37478;55.682;37.462;2023-06-14T05:02:20;13.00;;;6.70;;
51384;SDS011;37478;55.682;37.462;2023-06-14T05:04:45;13.27;;;6.60;;
51384;SDS011;37478;55.682;37.462;2023-06-14T05:07:12;11.10;;;6.32;;
51384;SDS011;37478;55.682;37.462;2023-06-14T05:09:39;10.35;;;6.13;;
51384;SDS011;37478;55.682;37.462;2023-06-14T05:12:04;12.13;;;6.75;;
51384;SDS011;37478;55.682;37.462;2023-06-14T05:14:32;9.13;;;5.40;;
51384;SDS011;37478;55.682;37.462;2023-06-14T05:16:58;10.63;;;5.88;;
51384;SDS011;37478;55.682;37.462;2023-06-14T05:19:23;13.02;;;5.15;;
51384;SDS011;37478;55.682;37.462;2023-06-14T05:21:48;9.45;;;5.45;;
51384;SDS011;37478;55.682;37.462;2023-06-14T05:24:14;10.75;;;5.35;;
51384;SDS011;37478;55.682;37.462;2023-06-14T05:26:46;8.38;;;4.82;;
51384;SDS011;37478;55.682;37.462;2023-06-14T05:29:11;16.50;;;5.93;;
51384;SDS011;37478;55.682;37.462;2023-06-14T05:31:36;9.80;;;4.68;;
51384;SDS011;37478;55.682;37.462;2023-06-14T05:34:02;12.23;;;5.03;;
51384;SDS011;37478;55.682;37.462;2023-06-14T05:36:28;7.40;;;4.50;;
51384;SDS011;37478;55.682;37.462;2023-06-14T05:38:53;8.68;;;4.55;;
51384;SDS011;37478;55.682;37.462;2023-06-14T05:41:25;8.65;;;4.35;;
51384;SDS011;37478;55.682;37.462;2023-06-14T05:43:51;7.25;;;5.03;;
51384;SDS011;37478;55.682;37.462;2023-06-14T05:46:16;6.95;;;4.70;;
51384;SDS011;37478;55.682;37.462;2023-06-14T05:48:47;9.48;;;4.47;;
51384;SDS011;37478;55.682;37.462;2023-06-14T05:51:12;6.10;;;4.05;;
51384;SDS011;37478;55.682;37.462;2023-06-14T05:53:37;7.40;;;3.90;;
51384;SDS011;37478;55.682;37.462;2023-06-14T05:56:03;13.48;;;4.70;;
51384;SDS011;37478;55.682;37.462;2023-06-14T05:58:28;8.75;;;4.30;;
51384;SDS011;37478;55.682;37.462;2023-06-14T06:00:53;7.30;;;3.80;;
51384;SDS011;37478;55.682;37.462;2023-06-14T06:03:19;6.72;;;4.47;;
51384;SDS011;37478;55.682;37.462;2023-06-14T06:05:44;13.05;;;5.95;;
51384;SDS011;37478;55.682;37.462;2023-06-14T06:08:09;7.82;;;3.97;;
51384;SDS011;37478;55.682;37.462;2023-06-14T06:10:35;7.68;;;4.35;;
51384;SDS011;37478;55.682;37.462;2023-06-14T06:13:00;9.73;;;4.35;;
51384;SDS011;37478;55.682;37.462;2023-06-14T06:15:25;8.38;;;3.70;;
51384;SDS011;37478;55.682;37.462;2023-06-14T06:17:51;6.20;;;3.78;;
51384;SDS011;37478;55.682;37.462;2023-06-14T06:20:16;7.85;;;3.20;;
51384;SDS011;37478;55.682;37.462;2023-06-14T06:22:42;8.02;;;3.40;;
51384;SDS011;37478;55.682;37.462;2023-06-14T06:25:07;7.68;;;3.58;;
51384;SDS011;37478;55.682;37.462;2023-06-14T06:27:33;5.20;;;2.60;;
51384;SDS011;37478;55.682;37.462;2023-06-14T06:29:59;4.45;;;2.92;;
51384;SDS011;37478;55.682;37.462;2023-06-14T06:32:24;4.85;;;3.00;;
51384;SDS011;37478;55.682;37.462;2023-06-14T06:34:50;8.43;;;4.47;;
51384;SDS011;37478;55.682;37.462;2023-06-14T06:37:15;11.52;;;3.50;;
51384;SDS011;37478;55.682;37.462;2023-06-14T06:39:40;5.22;;;2.90;;
51384;SDS011;37478;55.682;37.462;2023-06-14T06:42:06;15.57;;;3.50;;
51384;SDS011;37478;55.682;37.462;2023-06-14T06:44:31;7.57;;;3.13;;
51384;SDS011;37478;55.682;37.462;2023-06-14T06:46:57;10.55;;;3.78;;
51384;SDS011;37478;55.682;37.462;2023-06-14T06:49:22;9.80;;;4.63;;
51384;SDS011;37478;55.682;37.462;2023-06-14T06:52:01;7.85;;;4.03;;
51384;SDS011;37478;55.682;37.462;2023-06-14T06:54:29;8.93;;;3.20;;
51384;SDS011;37478;55.682;37.462;2023-06-14T06:56:55;4.50;;;3.25;;
51384;SDS011;37478;55.682;37.462;2023-06-14T06:59:21;7.93;;;3.58;;
51384;SDS011;37478;55.682;37.462;2023-06-14T07:01:46;9.73;;;3.30;;
51384;SDS011;37478;55.682;37.462;2023-06-14T07:04:11;5.65;;;3.15;;
51384;SDS011;37478;55.682;37.462;2023-06-14T07:06:37;10.07;;;6.47;;
51384;SDS011;37478;55.682;37.462;2023-06-14T07:09:03;3.83;;;2.80;;
51384;SDS011;37478;55.682;37.462;2023-06-14T07:11:30;4.57;;;3.20;;
51384;SDS011;37478;55.682;37.462;2023-06-14T07:13:55;3.17;;;2.58;;
51384;SDS011;37478;55.682;37.462;2023-06-14T07:16:21;5.70;;;3.30;;
51384;SDS011;37478;55.682;37.462;2023-06-14T07:18:46;4.28;;;2.70;;
51384;SDS011;37478;55.682;37.462;2023-06-14T07:21:12;6.82;;;2.75;;
51384;SDS011;37478;55.682;37.462;2023-06-14T07:23:37;9.43;;;3.53;;
51384;SDS011;37478;55.682;37.462;2023-06-14T07:26:02;4.38;;;3.03;;
51384;SDS011;37478;55.682;37.462;2023-06-14T07:28:28;9.90;;;3.75;;
51384;SDS011;37478;55.682;37.462;2023-06-14T07:30:53;4.57;;;2.83;;
51384;SDS011;37478;55.682;37.462;2023-06-14T07:33:18;7.82;;;4.75;;
51384;SDS011;37478;55.682;37.462;2023-06-14T07:35:44;4.35;;;3.00;;
51384;SDS011;37478;55.682;37.462;2023-06-14T07:38:10;4.97;;;3.00;;
51384;SDS011;37478;55.682;37.462;2023-06-14T07:40:36;5.40;;;2.67;;
51384;SDS011;37478;55.682;37.462;2023-06-14T07:43:01;5.30;;;2.97;;
51384;SDS011;37478;55.682;37.462;2023-06-14T07:45:27;5.15;;;3.58;;
51384;SDS011;37478;55.682;37.462;2023-06-14T07:47:52;7.15;;;3.40;;
51384;SDS011;37478;55.682;37.462;2023-06-14T07:50:18;8.20;;;4.15;;
51384;SDS011;37478;55.682;37.462;2023-06-14T07:52:43;7.63;;;3.83;;
51384;SDS011;37478;55.682;37.462;2023-06-14T07:55:09;9.00;;;3.13;;
51384;SDS011;37478;55.682;37.462;2023-06-14T07:57:34;4.47;;;2.80;;
51384;SDS011;37478;55.682;37.462;2023-06-14T08:00:00;8.35;;;3.03;;
51384;SDS011;37478;55.682;37.462;2023-06-14T08:02:25;6.97;;;3.67;;
51384;SDS011;37478;55.682;37.462;2023-06-14T08:04:56;6.05;;;3.03;;
51384;SDS011;37478;55.682;37.462;2023-06-14T08:07:22;7.32;;;3.58;;
51384;SDS011;37478;55.682;37.462;2023-06-14T08:09:47;7.53;;;3.45;;
51384;SDS011;37478;55.682;37.462;2023-06-14T08:12:12;7.97;;;3.28;;
51384;SDS011;37478;55.682;37.462;2023-06-14T08:14:39;10.88;;;3.50;;
51384;SDS011;37478;55.682;37.462;2023-06-14T08:17:04;4.15;;;2.88;;
51384;SDS011;37478;55.682;37.462;2023-06-14T08:19:30;6.38;;;3.28;;
51384;SDS011;37478;55.682;37.462;2023-06-14T08:21:56;8.70;;;3.38;;
51384;SDS011;37478;55.682;37.462;2023-06-14T08:24:21;7.07;;;3.40;;
51384;SDS011;37478;55.682;37.462;2023-06-14T08:26:49;8.35;;;3.40;;
51384;SDS011;37478;55.682;37.462;2023-06-14T08:29:15;4.78;;;3.03;;
51384;SDS011;37478;55.682;37.462;2023-06-14T08:31:40;6.15;;;2.88;;
51384;SDS011;37478;55.682;37.462;2023-06-14T08:34:05;5.75;;;4.00;;
51384;SDS011;37478;55.682;37.462;2023-06-14T08:36:31;11.10;;;3.70;;
51384;SDS011;37478;55.682;37.462;2023-06-14T08:38:56;9.88;;;3.90;;
51384;SDS011;37478;55.682;37.462;2023-06-14T08:41:22;6.15;;;3.85;;
51384;SDS011;37478;55.682;37.462;2023-06-14T08:43:51;7.53;;;3.30;;
51384;SDS011;37478;55.682;37.462;2023-06-14T08:46:17;6.28;;;3.63;;
51384;SDS011;37478;55.682;37.462;2023-06-14T08:48:51;8.77;;;4.00;;
51384;SDS011;37478;55.682;37.462;2023-06-14T08:51:20;7.85;;;3.80;;
51384;SDS011;37478;55.682;37.462;2023-06-14T08:53:57;7.35;;;3.65;;
51384;SDS011;37478;55.682;37.462;2023-06-14T08:56:26;5.63;;;3.20;;
51384;SDS011;37478;55.682;37.462;2023-06-14T08:58:52;5.05;;;3.45;;
51384;SDS011;37478;55.682;37.462;2023-06-14T09:01:18;7.07;;;3.60;;
51384;SDS011;37478;55.682;37.462;2023-06-14T09:03:44;8.38;;;3.50;;
51384;SDS011;37478;55.682;37.462;2023-06-14T09:06:09;9.10;;;3.78;;
51384;SDS011;37478;55.682;37.462;2023-06-14T09:08:40;6.70;;;3.45;;
51384;SDS011;37478;55.682;37.462;2023-06-14T09:11:05;7.35;;;3.50;;
51384;SDS011;37478;55.682;37.462;2023-06-14T09:13:30;6.38;;;4.80;;
51384;SDS011;37478;55.682;37.462;2023-06-14T09:15:56;9.15;;;3.40;;
51384;SDS011;37478;55.682;37.462;2023-06-14T09:18:21;8.02;;;3.95;;
51384;SDS011;37478;55.682;37.462;2023-06-14T09:20:47;12.55;;;4.18;;
51384;SDS011;37478;55.682;37.462;2023-06-14T09:23:13;9.52;;;3.30;;
51384;SDS011;37478;55.682;37.462;2023-06-14T09:25:41;7.50;;;3.90;;
51384;SDS011;37478;55.682;37.462;2023-06-14T09:28:07;6.25;;;3.47;;
51384;SDS011;37478;55.682;37.462;2023-06-14T09:30:33;6.78;;;3.60;;
51384;SDS011;37478;55.682;37.462;2023-06-14T09:32:58;9.50;;;3.35;;
51384;SDS011;37478;55.682;37.462;2023-06-14T09:35:24;6.65;;;3.65;;
51384;SDS011;37478;55.682;37.462;2023-06-14T09:37:49;6.45;;;3.60;;
51384;SDS011;37478;55.682;37.462;2023-06-14T09:40:19;6.65;;;3.60;;
51384;SDS011;37478;55.682;37.462;2023-06-14T09:42:45;6.25;;;4.20;;
51384;SDS011;37478;55.682;37.462;2023-06-14T09:45:10;5.47;;;3.35;;
51384;SDS011;37478;55.682;37.462;2023-06-14T09:47:37;5.55;;;3.38;;
51384;SDS011;37478;55.682;37.462;2023-06-14T09:50:04;8.05;;;3.70;;
51384;SDS011;37478;55.682;37.462;2023-06-14T09:52:29;6.72;;;3.63;;
51384;SDS011;37478;55.682;37.462;2023-06-14T09:54:55;5.32;;;3.78;;
51384;SDS011;37478;55.682;37.462;2023-06-14T09:57:21;5.78;;;3.25;;
51384;SDS011;37478;55.682;37.462;2023-06-14T09:59:47;6.10;;;3.60;;
51384;SDS011;37478;55.682;37.462;2023-06-14T10:02:24;4.63;;;3.25;;
51384;SDS011;37478;55.682;37.462;2023-06-14T10:04:52;8.50;;;3.58;;
51384;SDS011;37478;55.682;37.462;2023-06-14T10:07:19;5.82;;;4.18;;
51384;SDS011;37478;55.682;37.462;2023-06-14T10:09:45;5.45;;;3.20;;
51384;SDS011;37478;55.682;37.462;2023-06-14T10:12:16;4.60;;;3.38;;
51384;SDS011;37478;55.682;37.462;2023-06-14T10:14:46;5.22;;;3.10;;
51384;SDS011;37478;55.682;37.462;2023-06-14T10:17:12;9.10;;;4.05;;
51384;SDS011;37478;55.682;37.462;2023-06-14T10:19:42;7.30;;;3.83;;
51384;SDS011;37478;55.682;37.462;2023-06-14T10:22:23;6.13;;;3.47;;
51384;SDS011;37478;55.682;37.462;2023-06-14T10:24:51;5.78;;;3.83;;
51384;SDS011;37478;55.682;37.462;2023-06-14T10:27:16;7.45;;;3.60;;
51384;SDS011;37478;55.682;37.462;2023-06-14T10:32:17;11.15;;;4.63;;
51384;SDS011;37478;55.682;37.462;2023-06-14T10:34:44;4.47;;;3.13;;
51384;SDS011;37478;55.682;37.462;2023-06-14T10:37:13;5.35;;;3.35;;
51384;SDS011;37478;55.682;37.462;2023-06-14T10:39:39;7.65;;;3.03;;
51384;SDS011;37478;55.682;37.462;2023-06-14T10:42:06;5.72;;;3.38;;
51384;SDS011;37478;55.682;37.462;2023-06-14T10:46:58;5.95;;;3.38;;
51384;SDS011;37478;55.682;37.462;2023-06-14T10:49:36;6.68;;;3.42;;
51384;SDS011;37478;55.682;37.462;2023-06-14T10:52:06;8.23;;;4.00;;
51384;SDS011;37478;55.682;37.462;2023-06-14T10:57:39;6.85;;;4.18;;
51384;SDS011;37478;55.682;37.462;2023-06-14T11:00:05;10.60;;;4.05;;
51384;SDS011;37478;55.682;37.462;2023-06-14T11:05:15;9.27;;;3.85;;
51384;SDS011;37478;55.682;37.462;2023-06-14T11:10:38;5.45;;;3.20;;
51384;SDS011;37478;55.682;37.462;2023-06-14T11:13:04;5.10;;;3.55;;
51384;SDS011;37478;55.682;37.462;2023-06-14T11:15:30;4.93;;;3.15;;
51384;SDS011;37478;55.682;37.462;2023-06-14T11:17:56;3.95;;;3.05;;
51384;SDS011;37478;55.682;37.462;2023-06-14T11:20:26;4.63;;;3.28;;
51384;SDS011;37478;55.682;37.462;2023-06-14T11:22:52;7.95;;;3.63;;
51384;SDS011;37478;55.682;37.462;2023-06-14T11:25:17;6.68;;;4.03;;
51384;SDS011;37478;55.682;37.462;2023-06-14T11:27:42;6.32;;;3.40;;
51384;SDS011;37478;55.682;37.462;2023-06-14T11:30:08;8.48;;;3.92;;
51384;SDS011;37478;55.682;37.462;2023-06-14T11:32:37;7.78;;;3.72;;
51384;SDS011;37478;55.682;37.462;2023-06-14T11:35:03;8.32;;;3.88;;
51384;SDS011;37478;55.682;37.462;2023-06-14T11:37:30;5.88;;;3.63;;
51384;SDS011;37478;55.682;37.462;2023-06-14T11:39:59;5.85;;;3.63;;
51384;SDS011;37478;55.682;37.462;2023-06-14T11:42:26;9.57;;;3.97;;
51384;SDS011;37478;55.682;37.462;2023-06-14T11:44:51;3.70;;;2.95;;
51384;SDS011;37478;55.682;37.462;2023-06-14T11:47:18;7.00;;;3.67;;
51384;SDS011;37478;55.682;37.462;2023-06-14T11:49:43;6.50;;;3.40;;
51384;SDS011;37478;55.682;37.462;2023-06-14T11:52:08;4.50;;;3.55;;
51384;SDS011;37478;55.682;37.462;2023-06-14T11:54:34;5.22;;;3.95;;
51384;SDS011;37478;55.682;37.462;2023-06-14T11:56:59;7.07;;;3.88;;
51384;SDS011;37478;55.682;37.462;2023-06-14T11:59:25;6.88;;;4.07;;
51384;SDS011;37478;55.682;37.462;2023-06-14T12:01:50;5.55;;;3.70;;
51384;SDS011;37478;55.682;37.462;2023-06-14T12:04:28;4.68;;;3.80;;
51384;SDS011;37478;55.682;37.462;2023-06-14T12:06:54;6.60;;;3.83;;
51384;SDS011;37478;55.682;37.462;2023-06-14T12:09:20;7.45;;;3.47;;
51384;SDS011;37478;55.682;37.462;2023-06-14T12:11:49;5.72;;;3.03;;
51384;SDS011;37478;55.682;37.462;2023-06-14T12:14:14;5.90;;;3.40;;
51384;SDS011;37478;55.682;37.462;2023-06-14T12:16:40;5.22;;;3.95;;
51384;SDS011;37478;55.682;37.462;2023-06-14T12:19:11;6.55;;;3.90;;
51384;SDS011;37478;55.682;37.462;2023-06-14T12:21:37;12.23;;;4.05;;
51384;SDS011;37478;55.682;37.462;2023-06-14T12:24:05;7.30;;;3.65;;
51384;SDS011;37478;55.682;37.462;2023-06-14T12:26:32;7.70;;;3.53;;
51384;SDS011;37478;55.682;37.462;2023-06-14T12:28:57;8.68;;;3.92;;
51384;SDS011;37478;55.682;37.462;2023-06-14T12:31:23;7.82;;;3.90;;
51384;SDS011;37478;55.682;37.462;2023-06-14T12:33:49;6.75;;;3.53;;
51384;SDS011;37478;55.682;37.462;2023-06-14T12:36:14;5.50;;;3.50;;
51384;SDS011;37478;55.682;37.462;2023-06-14T12:38:40;8.18;;;3.83;;
51384;SDS011;37478;55.682;37.462;2023-06-14T12:41:06;6.22;;;3.42;;
51384;SDS011;37478;55.682;37.462;2023-06-14T12:43:32;8.77;;;3.92;;
51384;SDS011;37478;55.682;37.462;2023-06-14T12:45:58;9.52;;;3.88;;
51384;SDS011;37478;55.682;37.462;2023-06-14T12:48:24;11.93;;;3.60;;
51384;SDS011;37478;55.682;37.462;2023-06-14T12:50:49;7.32;;;4.28;;
51384;SDS011;37478;55.682;37.462;2023-06-14T12:53:14;4.90;;;3.33;;
51384;SDS011;37478;55.682;37.462;2023-06-14T12:55:40;5.25;;;3.47;;
51384;SDS011;37478;55.682;37.462;2023-06-14T12:58:05;6.80;;;3.50;;
51384;SDS011;37478;55.682;37.462;2023-06-14T13:00:31;4.95;;;3.45;;
51384;SDS011;37478;55.682;37.462;2023-06-14T13:02:56;7.90;;;4.03;;
51384;SDS011;37478;55.682;37.462;2023-06-14T13:05:22;4.93;;;3.38;;
51384;SDS011;37478;55.682;37.462;2023-06-14T13:07:48;9.48;;;4.85;;
51384;SDS011;37478;55.682;37.462;2023-06-14T13:10:19;5.85;;;3.10;;
51384;SDS011;37478;55.682;37.462;2023-06-14T13:12:51;8.43;;;3.42;;
51384;SDS011;37478;55.682;37.462;2023-06-14T13:15:16;7.13;;;3.33;;
51384;SDS011;37478;55.682;37.462;2023-06-14T13:17:42;5.18;;;3.55;;
51384;SDS011;37478;55.682;37.462;2023-06-14T13:20:09;6.40;;;3.40;;
51384;SDS011;37478;55.682;37.462;2023-06-14T13:22:34;9.55;;;3.70;;
51384;SDS011;37478;55.682;37.462;2023-06-14T13:25:00;5.32;;;3.40;;
51384;SDS011;37478;55.682;37.462;2023-06-14T13:27:26;7.55;;;3.40;;
51384;SDS011;37478;55.682;37.462;2023-06-14T13:29:52;7.55;;;4.00;;
51384;SDS011;37478;55.682;37.462;2023-06-14T13:32:17;5.78;;;3.35;;
51384;SDS011;37478;55.682;37.462;2023-06-14T13:34:43;7.30;;;4.07;;
51384;SDS011;37478;55.682;37.462;2023-06-14T13:37:08;9.93;;;3.95;;
51384;SDS011;37478;55.682;37.462;2023-06-14T13:39:33;8.80;;;4.10;;
51384;SDS011;37478;55.682;37.462;2023-06-14T13:42:02;4.78;;;3.15;;
51384;SDS011;37478;55.682;37.462;2023-06-14T13:44:33;10.45;;;4.50;;
51384;SDS011;37478;55.682;37.462;2023-06-14T13:46:59;3.53;;;3.10;;
51384;SDS011;37478;55.682;37.462;2023-06-14T13:49:36;9.68;;;3.47;;
51384;SDS011;37478;55.682;37.462;2023-06-14T13:52:01;6.13;;;3.83;;
51384;SDS011;37478;55.682;37.462;2023-06-14T13:54:27;7.82;;;3.78;;
51384;SDS011;37478;55.682;37.462;2023-06-14T13:56:53;5.53;;;3.80;;
51384;SDS011;37478;55.682;37.462;2023-06-14T13:59:19;5.25;;;3.35;;
51384;SDS011;37478;55.682;37.462;2023-06-14T14:01:44;8.02;;;3.25;;
51384;SDS011;37478;55.682;37.462;2023-06-14T14:04:09;8.02;;;3.47;;
51384;SDS011;37478;55.682;37.462;2023-06-14T14:06:35;4.50;;;3.53;;
51384;SDS011;37478;55.682;37.462;2023-06-14T14:09:00;6.45;;;3.50;;
51384;SDS011;37478;55.682;37.462;2023-06-14T14:11:25;6.68;;;3.63;;
51384;SDS011;37478;55.682;37.462;2023-06-14T14:13:51;5.45;;;2.95;;
51384;SDS011;37478;55.682;37.462;2023-06-14T14:16:16;7.22;;;3.38;;
51384;SDS011;37478;55.682;37.462;2023-06-14T14:18:42;7.50;;;3.30;;
51384;SDS011;37478;55.682;37.462;2023-06-14T14:21:19;9.98;;;3.38;;
51384;SDS011;37478;55.682;37.462;2023-06-14T14:23:44;5.78;;;3.58;;
51384;SDS011;37478;55.682;37.462;2023-06-14T14:26:16;6.05;;;3.60;;
51384;SDS011;37478;55.682;37.462;2023-06-14T14:28:42;6.75;;;3.17;;
51384;SDS011;37478;55.682;37.462;2023-06-14T14:31:07;5.22;;;3.72;;
51384;SDS011;37478;55.682;37.462;2023-06-14T14:33:32;7.07;;;3.38;;
51384;SDS011;37478;55.682;37.462;2023-06-14T14:35:59;5.00;;;3.20;;
51384;SDS011;37478;55.682;37.462;2023-06-14T14:38:28;5.53;;;3.15;;
51384;SDS011;37478;55.682;37.462;2023-06-14T14:40:54;5.50;;;3.50;;
51384;SDS011;37478;55.682;37.462;2023-06-14T14:43:19;4.57;;;3.47;;